Time;durP1;ratioP1;P1;durP2;ratioP2;P2;SDS_P1;SDS_P2;PMS_P1;PMS_P2;Temp;Humidity;BMP_temperature;BMP_pressure;BME280_temperature;BME280_humidity;BME280_pressure;Samples;Min_cycle;Max_cycle;Signal;HPM_P1;HPM_P2
2021/12/02 00:01:30;;;;;;;5.50;1.73;;;;;;;4.16;89.59;99811.53;5048678;28;20027;-66
2021/12/02 00:03:56;;;;;;;12.10;4.88;;;;;;;4.20;89.57;99805.94;5049479;28;20556;-66
2021/12/02 00:06:22;;;;;;;4.72;1.58;;;;;;;4.21;89.79;99807.56;5049502;28;20056;-66
2021/12/02 00:08:49;;;;;;;3.47;1.30;;;;;;;4.20;90.00;99793.53;5048682;28;20087;-66
2021/12/02 00:11:17;;;;;;;5.90;1.13;;;;;;;4.18;90.83;99795.53;5027729;28;20681;-66
2021/12/02 00:21:29;;;;;;;6.55;1.38;;;;;;;4.16;90.74;99797.53;5031895;28;20037;-66
2021/12/02 00:24:03;;;;;;;2.20;1.10;;;;;;;4.15;89.94;99806.47;5033278;28;20113;-66
2021/12/02 00:26:30;;;;;;;2.70;0.98;;;;;;;4.17;90.59;99812.38;5033201;28;20484;-66
2021/12/02 00:28:58;;;;;;;4.63;1.25;;;;;;;4.15;90.37;99803.81;5033133;28;20029;-66
2021/12/02 00:31:29;;;;;;;5.35;1.48;;;;;;;4.16;90.43;99805.44;5033037;28;20041;-68
2021/12/02 00:33:57;;;;;;;1.03;0.80;;;;;;;4.13;89.48;99801.34;5033148;28;20032;-66
2021/12/02 00:36:25;;;;;;;3.33;1.15;;;;;;;4.15;89.88;99811.75;5033081;28;20025;-66
2021/12/02 00:38:51;;;;;;;2.42;0.90;;;;;;;4.12;90.63;99798.91;5032992;28;20067;-66
2021/12/02 00:41:20;;;;;;;0.93;0.70;;;;;;;4.11;90.40;99798.09;5033013;28;20045;-67
2021/12/02 00:43:47;;;;;;;4.07;1.00;;;;;;;4.08;89.86;99803.72;5033020;28;20025;-66
2021/12/02 00:46:17;;;;;;;2.72;0.88;;;;;;;4.05;90.31;99804.06;5032992;28;20044;-67
2021/12/02 00:48:42;;;;;;;0.75;0.38;;;;;;;4.01;90.69;99804.59;5032996;28;20075;-66
2021/12/02 00:51:09;;;;;;;3.20;1.58;;;;;;;4.01;90.84;99809.88;5032951;28;20461;-66
2021/12/02 00:53:38;;;;;;;0.82;0.50;;;;;;;4.00;90.81;99805.63;5032930;28;20456;-66
2021/12/02 00:56:07;;;;;;;4.10;0.50;;;;;;;3.98;90.80;99802.34;5064906;28;20028;-66
2021/12/02 00:58:33;;;;;;;3.45;0.88;;;;;;;3.95;90.87;99799.06;5032756;28;20112;-66
2021/12/02 01:01:00;;;;;;;2.80;0.80;;;;;;;3.98;90.84;99807.59;5032732;28;20065;-68
2021/12/02 01:03:34;;;;;;;3.22;0.60;;;;;;;3.92;90.74;99809.97;5032844;28;20068;-65
2021/12/02 01:06:00;;;;;;;1.42;0.63;;;;;;;3.94;91.34;99810.63;5032778;28;20036;-66
2021/12/02 01:08:27;;;;;;;4.72;1.77;;;;;;;3.97;91.18;99821.81;5032651;28;20426;-66
2021/12/02 01:10:52;;;;;;;4.38;0.85;;;;;;;3.98;91.38;99839.25;5049429;28;20073;-65
2021/12/02 01:13:18;;;;;;;5.22;1.02;;;;;;;3.99;91.85;99833.00;5052628;28;20029;-66
2021/12/02 01:15:44;;;;;;;3.20;1.00;;;;;;;3.98;92.08;99836.63;5052671;28;20032;-66
2021/12/02 01:18:09;;;;;;;1.10;0.70;;;;;;;3.93;92.52;99829.28;5052574;28;20469;-66
2021/12/02 01:20:37;;;;;;;7.30;2.28;;;;;;;3.93;92.56;99824.00;5056444;28;20025;-66
2021/12/02 01:23:04;;;;;;;2.65;0.90;;;;;;;3.88;92.81;99816.63;5056524;28;20036;-66
2021/12/02 01:25:31;;;;;;;5.53;1.45;;;;;;;3.79;93.35;99820.31;5056456;28;20059;-66
2021/12/02 01:27:57;;;;;;;1.52;1.10;;;;;;;3.74;93.35;99827.94;5056457;28;20104;-66
2021/12/02 01:30:28;;;;;;;2.65;0.98;;;;;;;3.69;94.03;99819.72;5056527;28;20396;-66
2021/12/02 01:33:03;;;;;;;4.72;1.95;;;;;;;3.65;93.79;99829.81;5055373;28;20024;-66
2021/12/02 01:35:31;;;;;;;3.03;1.02;;;;;;;3.60;94.31;99832.16;5056231;28;20066;-66
2021/12/02 01:37:56;;;;;;;2.90;1.88;;;;;;;3.58;94.46;99822.78;5056168;28;20057;-68
2021/12/02 01:40:22;;;;;;;4.30;0.98;;;;;;;3.55;94.85;99823.97;5056110;28;20059;-66
2021/12/02 01:42:53;;;;;;;3.03;1.20;;;;;;;3.58;94.97;99828.06;5056113;28;20028;-66
2021/12/02 01:45:28;;;;;;;26.90;2.10;;;;;;;3.58;95.00;99831.50;5056037;28;20031;-66
2021/12/02 01:47:56;;;;;;;3.03;0.70;;;;;;;3.62;94.91;99843.38;5056051;28;20025;-66
2021/12/02 01:50:24;;;;;;;2.20;1.70;;;;;;;3.66;95.51;99855.19;5055969;28;20025;-67
2021/12/02 01:52:55;;;;;;;3.30;1.33;;;;;;;3.69;95.23;99846.94;5055914;28;20052;-66
2021/12/02 01:55:22;;;;;;;5.10;2.28;;;;;;;3.74;95.26;99854.31;5055902;28;20146;-66
2021/12/02 01:57:59;;;;;;;2.70;0.90;;;;;;;3.74;94.41;99851.66;5055677;28;20525;-66
2021/12/02 02:00:27;;;;;;;2.17;0.60;;;;;;;3.77;94.58;99850.50;5055876;28;20033;-66
2021/12/02 02:02:53;;;;;;;2.05;1.38;;;;;;;3.78;94.52;99846.88;5055809;28;20025;-66
2021/12/02 02:05:19;;;;;;;2.92;0.57;;;;;;;3.76;94.84;99848.84;5037950;28;20507;-66
2021/12/02 02:08:03;;;;;;;4.82;1.35;;;;;;;3.72;95.13;99836.03;5055622;28;20104;-66
2021/12/02 02:10:34;;;;;;;1.83;0.80;;;;;;;3.66;94.42;99833.28;5054011;28;20040;-66
2021/12/02 02:13:06;;;;;;;3.30;1.02;;;;;;;3.58;94.55;99835.97;5055580;28;20068;-66
2021/12/02 02:15:32;;;;;;;0.98;0.77;;;;;;;3.50;94.67;99835.03;5055564;28;20032;-66
2021/12/02 02:18:03;;;;;;;1.35;0.57;;;;;;;3.46;94.51;99839.03;5055419;28;20105;-66
2021/12/02 02:20:38;;;;;;;;;;;;;;;3.45;94.63;99832.09;5055890;28;20172;-66
2021/12/02 02:23:06;;;;;;;3.13;1.30;;;;;;;3.41;95.18;99835.28;5055388;28;19919;-66
2021/12/02 02:25:33;;;;;;;4.32;0.80;;;;;;;3.36;95.29;99835.78;5055389;28;20033;-66
2021/12/02 02:27:58;;;;;;;1.55;0.77;;;;;;;3.36;95.60;99829.72;5055312;28;20025;-66
2021/12/02 02:30:24;;;;;;;4.30;1.10;;;;;;;3.31;94.83;99832.06;5054361;28;20591;-66
2021/12/02 02:32:49;;;;;;;5.18;1.48;;;;;;;3.24;95.46;99835.38;5055283;28;20388;-66
2021/12/02 02:35:15;;;;;;;3.42;1.40;;;;;;;3.26;95.61;99835.19;5055208;28;20388;-66
2021/12/02 02:37:41;;;;;;;3.60;0.77;;;;;;;3.25;95.90;99833.56;5055124;28;20025;-66
2021/12/02 02:40:09;;;;;;;1.83;1.38;;;;;;;3.21;96.08;99832.25;5055044;28;20392;-67
2021/12/02 02:42:35;;;;;;;3.20;1.00;;;;;;;3.19;96.07;99828.97;5055094;28;20056;-66
2021/12/02 02:45:01;;;;;;;5.80;1.40;;;;;;;3.12;95.90;99820.97;5054963;28;20017;-66
2021/12/02 02:47:28;;;;;;;11.48;1.70;;;;;;;3.14;96.24;99826.03;5054904;28;20059;-66
2021/12/02 02:49:54;;;;;;;7.97;2.05;;;;;;;3.10;96.01;99815.03;5054919;28;20491;-66
2021/12/02 02:52:20;;;;;;;3.65;1.02;;;;;;;3.05;96.26;99820.00;5054837;28;20112;-66
2021/12/02 02:54:47;;;;;;;3.33;0.90;;;;;;;3.00;96.72;99827.59;5054833;28;20033;-66
2021/12/02 02:57:15;;;;;;;2.88;1.00;;;;;;;2.96;96.85;99826.31;5054584;28;20033;-66
2021/12/02 03:07:54;;;;;;;2.70;1.08;;;;;;;2.81;97.37;99829.69;5043892;28;20025;-66
2021/12/02 03:11:04;;;;;;;3.85;1.95;;;;;;;2.78;97.13;99832.66;5054388;28;20064;-66
2021/12/02 03:13:21;;;;;;;2.15;1.50;;;;;;;2.78;97.28;99837.09;5051322;28;20037;-66
2021/12/02 03:18:31;;;;;;;6.47;2.75;;;;;;;2.70;97.22;99847.66;5054304;28;20048;-66
2021/12/02 03:20:56;;;;;;;5.32;1.85;;;;;;;2.71;97.47;99849.31;5054245;28;20029;-66
2021/12/02 03:23:23;;;;;;;4.35;1.35;;;;;;;2.73;97.58;99856.03;5054242;28;20365;-66
2021/12/02 03:25:49;;;;;;;4.90;1.27;;;;;;;2.77;96.71;99854.69;5054274;28;20033;-66
2021/12/02 03:28:14;;;;;;;6.88;1.50;;;;;;;2.81;96.61;99852.56;5054192;28;20039;-66
2021/12/02 03:30:40;;;;;;;3.17;1.08;;;;;;;2.89;96.92;99849.88;5054202;28;20489;-66
2021/12/02 03:33:05;;;;;;;4.38;1.65;;;;;;;2.92;96.70;99846.91;5052848;28;20032;-66
2021/12/02 03:35:30;;;;;;;6.65;1.50;;;;;;;2.97;96.64;99854.31;5054096;28;20025;-66
2021/12/02 03:37:56;;;;;;;10.18;2.63;;;;;;;2.96;96.68;99852.63;5052685;28;20392;-66
2021/12/02 03:40:22;;;;;;;4.88;1.42;;;;;;;2.95;96.52;99859.72;5053872;28;20094;-66
2021/12/02 03:42:50;;;;;;;7.55;1.33;;;;;;;2.94;96.39;99860.72;5053865;28;20056;-66
2021/12/02 03:45:16;;;;;;;2.25;1.05;;;;;;;2.93;96.39;99853.81;5053740;28;20035;-66
2021/12/02 03:47:42;;;;;;;3.50;1.40;;;;;;;2.88;96.45;99853.50;5053737;28;20461;-66
2021/12/02 03:50:08;;;;;;;9.88;2.88;;;;;;;2.82;96.76;99849.72;5053738;28;20112;-66
2021/12/02 03:52:33;;;;;;;4.28;3.22;;;;;;;2.80;96.58;99864.06;5052495;28;20036;-66
2021/12/02 03:54:58;;;;;;;3.67;1.40;;;;;;;2.75;96.46;99855.84;5053684;28;20028;-66
2021/12/02 03:57:24;;;;;;;2.72;1.50;;;;;;;2.69;96.46;99851.28;5053763;28;20393;-66
2021/12/02 03:59:49;;;;;;;4.18;1.63;;;;;;;2.63;96.76;99850.97;5053629;28;20079;-66
2021/12/02 04:02:15;;;;;;;4.20;1.75;;;;;;;2.59;96.79;99851.47;5053455;28;20029;-66
2021/12/02 04:04:40;;;;;;;3.65;1.17;;;;;;;2.52;96.67;99853.97;5053485;28;20052;-66
2021/12/02 04:07:05;;;;;;;4.68;1.23;;;;;;;2.53;97.06;99855.59;5053432;28;20431;-66
2021/12/02 04:09:38;;;;;;;7.72;1.13;;;;;;;2.55;97.15;99852.81;5052927;28;20073;-68
2021/12/02 04:12:54;;;;;;;1.42;0.63;;;;;;;2.59;97.15;99847.06;5052680;28;20037;-66
2021/12/02 04:17:18;;;;;;;3.47;0.80;;;;;;;2.54;96.59;99844.09;5053364;28;20535;-66
2021/12/02 04:19:43;;;;;;;1.55;0.77;;;;;;;2.50;97.05;99839.34;5053247;28;20384;-66
2021/12/02 04:22:08;;;;;;;2.78;0.73;;;;;;;2.45;96.71;99839.03;5053145;28;20025;-66
2021/12/02 04:24:34;;;;;;;3.38;1.25;;;;;;;2.42;97.22;99846.25;5052938;28;20520;-66
2021/12/02 04:27:00;;;;;;;2.75;0.80;;;;;;;2.43;97.19;99844.44;5051792;28;20037;-66
2021/12/02 04:29:25;;;;;;;1.30;0.70;;;;;;;2.45;97.39;99853.00;5052997;28;20027;-65
2021/12/02 04:31:52;;;;;;;3.22;0.70;;;;;;;2.51;96.92;99851.50;5052775;28;20029;-66
2021/12/02 04:34:18;;;;;;;5.07;1.10;;;;;;;2.57;97.08;99856.09;5053010;28;20362;-66
2021/12/02 04:36:43;;;;;;;3.75;1.02;;;;;;;2.57;96.71;99858.75;5053032;28;20155;-66
2021/12/02 04:39:10;;;;;;;2.33;0.85;;;;;;;2.66;96.51;99870.06;5052890;28;20040;-66
2021/12/02 04:41:36;;;;;;;5.55;0.95;;;;;;;2.68;96.37;99875.97;5052984;28;20060;-66
2021/12/02 04:44:02;;;;;;;5.40;1.00;;;;;;;2.75;95.88;99879.53;5052963;28;20061;-65
2021/12/02 04:46:28;;;;;;;6.72;0.95;;;;;;;2.80;95.65;99877.22;5052893;28;20025;-66
2021/12/02 04:48:54;;;;;;;6.90;0.90;;;;;;;2.82;94.79;99881.34;5052862;28;20021;-66
2021/12/02 04:51:19;;;;;;;1.45;0.55;;;;;;;2.75;94.87;99872.50;5052874;28;20155;-66
2021/12/02 04:53:44;;;;;;;4.78;0.65;;;;;;;2.78;94.40;99879.22;5053867;28;20036;-66
2021/12/02 04:56:10;;;;;;;2.65;0.73;;;;;;;2.74;94.64;99875.28;5059563;28;20106;-66
2021/12/02 04:58:35;;;;;;;3.08;1.00;;;;;;;2.66;95.18;99870.88;5059429;28;20117;-66
2021/12/02 05:01:00;;;;;;;1.65;0.40;;;;;;;2.62;94.97;99865.13;5059646;28;20036;-66
2021/12/02 05:03:26;;;;;;;1.25;0.77;;;;;;;2.59;95.12;99875.16;5059006;28;20025;-66
2021/12/02 05:05:51;;;;;;;2.22;1.38;;;;;;;2.54;94.64;99878.31;5059417;28;20468;-66
2021/12/02 05:08:17;;;;;;;2.95;0.50;;;;;;;2.55;94.75;99887.03;5059233;28;20032;-66
2021/12/02 05:10:42;;;;;;;0.50;0.50;;;;;;;2.59;95.12;99888.31;5059061;28;20049;-66
2021/12/02 05:13:08;;;;;;;1.70;0.57;;;;;;;2.59;95.37;99896.22;5059332;28;20462;-66
2021/12/02 05:15:33;;;;;;;0.50;0.50;;;;;;;2.56;94.89;99902.63;5059191;28;20035;-66
2021/12/02 05:17:59;;;;;;;7.53;1.95;;;;;;;2.60;95.06;99903.13;5059106;28;20082;-66
2021/12/02 05:20:24;;;;;;;0.88;0.45;;;;;;;2.62;95.52;99898.53;5059285;28;20036;-66
2021/12/02 05:22:50;;;;;;;2.00;0.73;;;;;;;2.67;95.84;99898.81;5059260;28;20029;-66
2021/12/02 05:25:15;;;;;;;3.72;1.15;;;;;;;2.66;96.05;99885.84;5059290;28;20055;-65
2021/12/02 05:27:40;;;;;;;1.02;0.80;;;;;;;2.67;95.66;99898.00;5059260;28;20029;-65
2021/12/02 05:30:07;;;;;;;0.63;0.63;;;;;;;2.64;95.60;99897.34;5059368;28;20448;-66
2021/12/02 05:32:33;;;;;;;4.55;1.52;;;;;;;2.60;95.38;99900.50;5059120;28;20151;-66
2021/12/02 05:34:59;;;;;;;2.63;1.10;;;;;;;2.57;95.69;99904.28;5057867;28;20531;-65
2021/12/02 05:37:24;;;;;;;1.55;0.80;;;;;;;2.60;95.85;99908.41;5058678;28;20072;-66
2021/12/02 05:39:50;;;;;;;3.97;2.13;;;;;;;2.57;95.43;99900.84;5058862;28;20028;-66
2021/12/02 05:42:15;;;;;;;1.10;1.00;;;;;;;2.56;95.81;99892.09;5058846;28;20037;-66
2021/12/02 05:44:41;;;;;;;2.70;1.17;;;;;;;2.55;95.94;99900.19;5059104;28;20032;-66
2021/12/02 05:47:07;;;;;;;2.13;0.95;;;;;;;2.53;95.87;99905.59;5058870;28;20049;-66
2021/12/02 05:49:33;;;;;;;2.40;1.67;;;;;;;2.52;95.82;99914.50;5058906;28;20025;-65
2021/12/02 05:51:58;;;;;;;3.33;1.20;;;;;;;2.49;96.28;99904.31;5058400;28;20041;-68
2021/12/02 05:54:24;;;;;;;1.08;0.90;;;;;;;2.51;95.94;99906.75;5058733;28;20495;-66
2021/12/02 05:56:49;;;;;;;2.20;0.95;;;;;;;2.50;95.69;99908.56;5058625;28;20037;-66
2021/12/02 05:59:14;;;;;;;1.90;1.00;;;;;;;2.50;95.92;99916.47;5058510;28;20036;-66
2021/12/02 06:01:42;;;;;;;4.25;1.10;;;;;;;2.45;96.02;99923.22;5058554;28;20032;-66
2021/12/02 06:04:11;;;;;;;5.05;1.05;;;;;;;2.44;95.76;99925.06;5057492;28;20053;-66
2021/12/02 06:06:37;;;;;;;3.75;0.63;;;;;;;2.42;96.24;99917.31;5053458;28;20107;-66
2021/12/02 06:09:04;;;;;;;6.45;1.00;;;;;;;2.37;96.25;99921.44;5055600;28;20051;-66
2021/12/02 06:11:30;;;;;;;3.33;2.05;;;;;;;2.35;96.06;99920.75;5055458;28;20083;-66
2021/12/02 06:13:55;;;;;;;1.25;0.40;;;;;;;2.31;96.26;99925.56;5055405;28;20033;-66
2021/12/02 06:16:21;;;;;;;1.42;0.88;;;;;;;2.31;96.24;99925.56;5055380;28;20078;-66
2021/12/02 06:18:47;;;;;;;1.05;0.80;;;;;;;2.31;96.42;99930.00;5055447;28;20468;-66
2021/12/02 06:21:12;;;;;;;2.25;1.42;;;;;;;2.32;96.35;99926.38;5055502;28;20461;-66
2021/12/02 06:23:40;;;;;;;3.15;1.10;;;;;;;2.28;96.50;99922.41;5053942;28;20037;-66
2021/12/02 06:26:05;;;;;;;6.32;2.15;;;;;;;2.25;96.75;99920.94;5055313;28;20051;-66
2021/12/02 06:28:31;;;;;;;0.82;0.60;;;;;;;2.15;96.77;99917.69;5055237;28;20453;-66
2021/12/02 06:30:56;;;;;;;2.95;0.80;;;;;;;2.08;96.32;99925.38;5055153;28;20033;-66
2021/12/02 06:33:22;;;;;;;2.88;1.13;;;;;;;2.02;96.73;99926.06;5055184;28;20044;-66
2021/12/02 06:35:47;;;;;;;7.97;1.27;;;;;;;1.93;96.81;99927.84;5053911;28;20056;-68
2021/12/02 06:38:12;;;;;;;2.08;0.70;;;;;;;1.90;96.95;99943.13;5055048;28;20055;-66
2021/12/02 06:40:39;;;;;;;4.53;1.25;;;;;;;1.88;97.36;99945.91;5055032;28;20495;-66
2021/12/02 06:43:05;;;;;;;0.82;0.82;;;;;;;1.90;97.38;99943.94;5054996;28;20499;-66
2021/12/02 06:45:30;;;;;;;1.65;0.70;;;;;;;1.89;97.44;99931.78;5054759;28;20036;-66
2021/12/02 06:47:59;;;;;;;2.60;1.23;;;;;;;1.93;97.52;99937.53;5054813;28;20537;-67
2021/12/02 06:50:26;;;;;;;4.57;0.82;;;;;;;1.90;97.65;99943.13;5054678;28;20048;-66
2021/12/02 06:52:53;;;;;;;2.92;0.70;;;;;;;1.89;97.58;99954.66;5054835;28;20108;-66
2021/12/02 06:55:19;;;;;;;0.98;0.60;;;;;;;1.91;97.68;99956.13;5054711;28;20465;-67
2021/12/02 06:57:46;;;;;;;3.30;1.20;;;;;;;1.94;97.63;99957.63;5054640;28;20025;-66
2021/12/02 07:00:14;;;;;;;4.07;1.05;;;;;;;1.94;97.68;99965.50;5054540;28;20484;-66
2021/12/02 07:02:40;;;;;;;2.10;0.68;;;;;;;1.95;97.61;99961.88;5054337;28;20396;-67
2021/12/02 07:05:07;;;;;;;1.25;0.98;;;;;;;1.90;97.24;99962.34;5054572;28;20033;-67
2021/12/02 07:07:36;;;;;;;3.97;1.25;;;;;;;1.88;97.30;99969.56;5054561;28;20032;-66
2021/12/02 07:10:08;;;;;;;4.80;0.90;;;;;;;1.90;97.51;99972.06;5054227;28;20492;-66
2021/12/02 07:12:35;;;;;;;4.55;0.77;;;;;;;1.92;97.69;99981.44;5054300;28;20029;-66
2021/12/02 07:15:07;;;;;;;2.70;1.15;;;;;;;1.93;97.47;99982.25;5054345;28;20159;-66
2021/12/02 07:17:33;;;;;;;2.00;0.88;;;;;;;1.89;97.31;99992.28;5054000;28;20021;-66
2021/12/02 07:20:00;;;;;;;3.08;1.00;;;;;;;1.85;97.48;99985.69;5054279;28;20031;-67
2021/12/02 07:22:26;;;;;;;4.53;0.95;;;;;;;1.92;97.86;99993.75;5054151;28;20469;-67
2021/12/02 07:24:51;;;;;;;4.80;2.10;;;;;;;1.91;97.53;99984.19;5053925;28;20031;-66
2021/12/02 07:27:17;;;;;;;2.53;0.60;;;;;;;1.87;97.78;99982.91;5053342;28;20476;-67
2021/12/02 07:29:42;;;;;;;3.17;0.75;;;;;;;1.90;97.73;99980.75;5049945;28;20115;-67
2021/12/02 07:32:11;;;;;;;1.75;1.05;;;;;;;1.90;97.83;99978.13;5031149;28;20052;-67
2021/12/02 07:34:42;;;;;;;1.13;0.70;;;;;;;1.90;97.65;99972.88;5030738;28;20033;-66
2021/12/02 07:37:08;;;;;;;1.33;1.25;;;;;;;1.92;97.57;99970.91;5050152;28;20492;-67
2021/12/02 07:39:33;;;;;;;2.40;0.90;;;;;;;1.90;97.81;99964.97;5050035;28;20037;-67
2021/12/02 07:41:59;;;;;;;2.40;1.08;;;;;;;1.93;97.87;99980.44;5050148;28;20037;-66
2021/12/02 07:44:25;;;;;;;3.90;0.80;;;;;;;1.91;97.37;99992.09;5050109;28;20036;-67
2021/12/02 07:46:51;;;;;;;0.88;0.70;;;;;;;1.92;97.25;100001.66;5050411;28;20021;-66
2021/12/02 07:49:16;;;;;;;4.53;0.93;;;;;;;1.89;97.06;99994.91;5050006;28;20082;-67
2021/12/02 07:51:49;;;;;;;0.88;0.70;;;;;;;1.85;97.10;99996.19;5049876;28;20029;-67
2021/12/02 07:54:17;;;;;;;3.28;0.90;;;;;;;1.84;96.96;100001.63;5049782;28;20029;-67
2021/12/02 07:56:45;;;;;;;5.30;1.50;;;;;;;1.81;96.95;99994.03;5049842;28;20476;-66
2021/12/02 07:59:10;;;;;;;3.58;1.65;;;;;;;1.79;96.80;100007.38;5049497;28;20118;-67
2021/12/02 08:01:36;;;;;;;5.57;2.58;;;;;;;1.79;96.61;100017.88;5049424;28;20453;-67
2021/12/02 08:04:01;;;;;;;9.43;2.75;;;;;;;1.80;96.55;100016.06;5048418;28;20033;-66
2021/12/02 08:06:27;;;;;;;2.67;1.48;;;;;;;1.80;96.51;100023.94;5049570;28;20484;-67
2021/12/02 08:08:53;;;;;;;4.75;1.67;;;;;;;1.79;96.27;100019.69;5049429;28;20376;-67
2021/12/02 08:11:18;;;;;;;3.15;1.90;;;;;;;1.71;96.28;100023.13;5049407;28;20045;-66
2021/12/02 08:13:44;;;;;;;5.18;1.10;;;;;;;1.71;96.03;100034.44;5049565;28;20079;-67
2021/12/02 08:16:09;;;;;;;4.00;1.63;;;;;;;1.77;96.13;100035.59;5049375;28;20029;-66
2021/12/02 08:18:35;;;;;;;1.95;0.70;;;;;;;1.82;96.49;100041.22;5049001;28;20037;-67
2021/12/02 08:21:01;;;;;;;3.72;0.98;;;;;;;1.86;96.19;100050.44;5049317;28;20078;-67
2021/12/02 08:23:27;;;;;;;2.95;1.13;;;;;;;1.91;96.44;100063.09;5049346;28;20024;-66
2021/12/02 08:25:54;;;;;;;5.15;1.55;;;;;;;1.94;96.56;100060.16;5048637;28;20032;-66
2021/12/02 08:28:19;;;;;;;2.42;1.45;;;;;;;1.96;96.20;100064.28;5028123;28;20444;-66
2021/12/02 08:30:45;;;;;;;8.35;2.40;;;;;;;2.01;96.42;100055.06;5030788;28;20026;-66
2021/12/02 08:33:13;;;;;;;4.18;0.90;;;;;;;2.00;96.36;100051.63;5033016;28;20036;-66
2021/12/02 08:35:39;;;;;;;3.03;0.95;;;;;;;1.95;96.25;100059.97;5032866;28;20056;-67
2021/12/02 08:38:12;;;;;;;5.55;1.00;;;;;;;2.00;96.23;100063.94;5032430;28;20119;-66
2021/12/02 08:40:39;;;;;;;6.22;1.55;;;;;;;2.14;96.42;100058.06;5032975;28;20037;-67
2021/12/02 08:43:07;;;;;;;3.08;1.60;;;;;;;2.31;96.27;100072.06;5032916;28;20095;-67
2021/12/02 08:45:35;;;;;;;3.47;1.67;;;;;;;2.42;95.67;100072.56;5033033;28;20025;-67
2021/12/02 08:48:02;;;;;;;3.35;1.30;;;;;;;2.49;95.75;100072.75;5031782;28;20030;-67
2021/12/02 08:50:28;;;;;;;2.17;1.20;;;;;;;2.60;95.48;100075.06;5031886;28;20381;-67
2021/12/02 08:52:54;;;;;;;1.27;0.82;;;;;;;2.76;96.03;100087.38;5032985;28;20053;-67
2021/12/02 08:55:22;;;;;;;4.25;0.90;;;;;;;2.93;95.20;100097.91;5031685;28;20477;-67
2021/12/02 08:57:49;;;;;;;1.85;0.95;;;;;;;3.05;95.08;100097.41;5032818;28;20017;-66
2021/12/02 09:00:19;;;;;;;2.80;1.13;;;;;;;3.05;94.06;100101.88;5032801;28;20057;-66
2021/12/02 09:02:45;;;;;;;2.45;0.90;;;;;;;3.10;94.12;100107.47;5032486;28;20552;-67
2021/12/02 09:05:11;;;;;;;4.53;1.27;;;;;;;3.13;94.31;100108.94;5032820;28;20489;-67
2021/12/02 09:07:37;;;;;;;4.05;1.45;;;;;;;3.12;94.05;100116.03;5032839;28;20028;-66
2021/12/02 09:10:06;;;;;;;1.73;1.02;;;;;;;3.11;93.72;100116.19;5032523;28;20057;-67
2021/12/02 09:12:33;;;;;;;3.33;1.20;;;;;;;3.14;94.58;100116.66;5032514;28;20025;-67
2021/12/02 09:14:58;;;;;;;5.80;1.42;;;;;;;3.14;93.79;100116.66;5032776;28;20091;-66
2021/12/02 09:17:24;;;;;;;4.07;1.20;;;;;;;3.14;94.05;100118.47;5032637;28;20029;-67
2021/12/02 09:19:50;;;;;;;8.30;1.30;;;;;;;3.11;93.74;100113.53;5032564;28;20034;-66
2021/12/02 09:22:15;;;;;;;2.05;0.75;;;;;;;3.13;93.63;100119.47;5032716;28;20472;-66
2021/12/02 09:24:41;;;;;;;2.20;1.25;;;;;;;3.16;91.96;100119.94;5032646;28;20029;-67
2021/12/02 09:27:07;;;;;;;4.00;1.00;;;;;;;3.20;92.62;100136.28;5032087;28;20381;-66
2021/12/02 09:29:33;;;;;;;5.30;1.13;;;;;;;3.26;92.22;100132.97;5032245;28;20034;-66
2021/12/02 09:31:58;;;;;;;3.58;1.63;;;;;;;3.29;92.41;100137.91;5032398;28;20029;-66
2021/12/02 09:34:26;;;;;;;2.05;0.90;;;;;;;3.31;92.84;100135.09;5032292;28;20029;-66
2021/12/02 09:36:52;;;;;;;3.40;0.75;;;;;;;3.33;91.85;100141.84;5032477;28;20029;-66
2021/12/02 09:39:17;;;;;;;3.72;0.80;;;;;;;3.26;90.66;100140.88;5032523;28;20038;-66
2021/12/02 09:41:47;;;;;;;5.78;1.08;;;;;;;3.21;91.48;100141.34;5036301;28;20477;-66
2021/12/02 09:44:13;;;;;;;3.00;1.50;;;;;;;3.17;91.33;100139.22;5036233;28;20029;-66
2021/12/02 09:46:40;;;;;;;4.20;1.35;;;;;;;3.10;91.70;100144.34;5036163;28;20473;-66
2021/12/02 09:49:08;;;;;;;2.33;1.38;;;;;;;3.03;91.22;100140.72;5036093;28;20427;-66
2021/12/02 09:54:31;;;;;;;2.13;1.13;;;;;;;2.84;92.13;100147.94;5036084;28;20060;-66
2021/12/02 09:57:01;;;;;;;4.05;1.58;;;;;;;2.79;92.51;100147.63;5035868;28;20043;-66
2021/12/02 10:00:16;;;;;;;3.67;1.13;;;;;;;2.71;92.01;100152.06;5035634;28;20167;-66
2021/12/02 10:02:18;;;;;;;1.70;1.08;;;;;;;2.59;91.17;100155.03;5035348;28;20120;-67
2021/12/02 10:05:00;;;;;;;1.40;1.00;;;;;;;2.56;91.92;100160.59;5035913;28;20435;-67
2021/12/02 10:10:08;;;;;;;1.73;1.30;;;;;;;2.70;92.33;100147.75;5035715;28;20084;-66
2021/12/02 10:12:37;;;;;;;6.45;1.75;;;;;;;2.76;92.43;100149.78;5035193;28;20055;-67
2021/12/02 10:15:10;;;;;;;3.83;1.98;;;;;;;2.79;92.51;100152.88;5035612;28;20370;-67
2021/12/02 10:17:43;;;;;;;6.43;2.17;;;;;;;2.83;92.13;100156.03;5035577;28;20053;-66
2021/12/02 10:23:12;;;;;;;5.68;1.33;;;;;;;2.98;92.83;100162.28;5035629;28;20059;-66
2021/12/02 10:25:38;;;;;;;3.22;1.33;;;;;;;3.12;92.39;100162.59;5035261;28;20053;-66
2021/12/02 10:28:11;;;;;;;1.35;1.25;;;;;;;3.21;91.99;100164.25;5035375;28;20076;-66
2021/12/02 10:30:42;;;;;;;4.18;1.98;;;;;;;3.29;91.87;100167.69;5035177;28;20029;-67
2021/12/02 10:33:09;;;;;;;12.35;2.85;;;;;;;3.38;91.61;100168.53;5035172;28;20477;-66
2021/12/02 10:35:41;;;;;;;4.20;1.45;;;;;;;3.45;91.61;100160.75;5035246;28;20029;-66
2021/12/02 10:38:06;;;;;;;;;;;;;;;3.49;91.38;100162.91;5035630;28;20448;-66
2021/12/02 10:40:34;;;;;;;3.53;1.60;;;;;;;3.48;90.99;100161.28;5035224;28;19909;-67
2021/12/02 10:43:06;;;;;;;6.45;2.22;;;;;;;3.50;91.19;100158.44;5035113;28;20412;-66
2021/12/02 10:45:32;;;;;;;6.82;2.45;;;;;;;3.53;90.93;100162.56;5035110;28;20025;-67
2021/12/02 10:47:58;;;;;;;8.82;1.98;;;;;;;3.57;89.86;100169.16;5035095;28;20071;-67
2021/12/02 10:50:26;;;;;;;5.63;1.63;;;;;;;3.61;90.58;100181.81;5034937;28;20040;-67
2021/12/02 10:52:52;;;;;;;4.68;1.40;;;;;;;3.70;89.97;100177.38;5034295;28;20029;-66
2021/12/02 10:55:22;;;;;;;5.07;2.00;;;;;;;3.72;89.92;100192.03;5034617;28;20491;-66
2021/12/02 10:57:49;;;;;;;4.25;1.77;;;;;;;3.80;90.28;100185.06;5034748;28;20116;-66
2021/12/02 11:00:20;;;;;;;3.60;2.47;;;;;;;3.80;89.92;100191.19;5034842;28;20033;-67
2021/12/02 11:02:49;;;;;;;2.20;1.58;;;;;;;3.80;89.21;100198.25;5034437;28;20460;-67
2021/12/02 11:05:22;;;;;;;4.55;1.92;;;;;;;3.83;88.92;100192.69;5034712;28;20029;-67
2021/12/02 11:08:05;;;;;;;4.28;2.20;;;;;;;3.74;88.51;100179.47;5034554;28;20029;-67
2021/12/02 11:10:39;;;;;;;5.57;2.60;;;;;;;3.76;89.10;100183.78;5034402;28;20048;-66
2021/12/02 11:13:06;;;;;;;4.18;1.92;;;;;;;3.79;87.97;100194.81;5034576;28;20108;-66
2021/12/02 11:15:35;;;;;;;4.32;1.60;;;;;;;3.74;88.23;100202.41;5034508;28;20504;-66
2021/12/02 11:18:04;;;;;;;1.25;1.10;;;;;;;3.58;87.03;100192.72;5034350;28;20069;-66
2021/12/02 11:20:34;;;;;;;3.35;0.90;;;;;;;3.49;86.38;100204.28;5034228;28;20021;-66
2021/12/02 11:23:03;;;;;;;2.35;1.20;;;;;;;3.45;87.14;100198.50;5033951;28;20021;-67
2021/12/02 11:25:30;;;;;;;1.65;1.00;;;;;;;3.57;87.46;100216.63;5034128;28;20158;-67
2021/12/02 11:27:55;;;;;;;3.22;1.00;;;;;;;3.59;88.03;100215.47;5034320;28;20021;-66
2021/12/02 11:30:26;;;;;;;0.90;0.80;;;;;;;3.66;88.54;100203.25;5034246;28;20053;-67
2021/12/02 11:32:58;;;;;;;1.30;1.00;;;;;;;3.73;88.23;100198.94;5034195;28;20026;-67
2021/12/02 11:35:36;;;;;;;3.50;1.13;;;;;;;3.85;87.90;100198.56;5034149;28;20029;-67
2021/12/02 11:38:09;;;;;;;1.70;0.90;;;;;;;3.95;87.93;100201.84;5033935;28;20022;-67
2021/12/02 11:40:40;;;;;;;1.73;1.00;;;;;;;4.07;87.50;100189.13;5034026;28;20536;-67
2021/12/02 11:43:07;;;;;;;1.92;1.15;;;;;;;4.14;86.59;100204.13;5033995;28;20129;-67
2021/12/02 11:45:40;;;;;;;3.30;1.92;;;;;;;4.20;86.20;100192.03;5033933;28;20033;-67
2021/12/02 11:48:05;;;;;;;1.55;1.40;;;;;;;4.24;85.30;100195.16;5033923;28;20025;-67
2021/12/02 11:50:30;;;;;;;1.83;0.93;;;;;;;4.23;85.83;100209.34;5033866;28;20032;-67
2021/12/02 11:52:56;;;;;;;1.77;0.82;;;;;;;4.18;85.39;100210.69;5033837;28;20037;-66
2021/12/02 11:55:35;;;;;;;0.85;0.85;;;;;;;4.08;84.84;100211.88;5033745;28;20017;-67
2021/12/02 11:58:01;;;;;;;1.88;1.17;;;;;;;4.00;85.65;100214.53;5033486;28;20030;-66
2021/12/02 12:00:29;;;;;;;2.30;0.85;;;;;;;3.99;85.41;100211.09;5033583;28;20041;-67
2021/12/02 12:02:56;;;;;;;0.60;0.60;;;;;;;3.96;86.83;100214.06;5032555;28;20488;-66
2021/12/02 12:05:29;;;;;;;1.77;0.95;;;;;;;3.94;86.59;100218.69;5033343;28;20025;-66
2021/12/02 12:07:55;;;;;;;1.25;1.10;;;;;;;3.91;85.79;100233.03;5033522;28;20496;-66
2021/12/02 12:10:35;;;;;;;4.15;1.52;;;;;;;3.83;86.44;100227.78;5033294;28;20049;-66